Weather History for Cody, WY

Change the Weather History Date:

Wednesday, December 5, 2012

  Actual Average Record
Temperature  
Mean Temperature 48 °F -  
Max Temperature 57 °F 38 °F 64 °F (1939)
Min Temperature 37 °F 16 °F -29 °F (1972)
Degree Days  
Heating Degree Days 17    
Moisture  
Dew Point 30 °F    
Average Humidity 46    
Maximum Humidity 66    
Minimum Humidity 36    
Precipitation  
Precipitation 0.00 in - - ()
Sea Level Pressure  
Sea Level Pressure 29.85 in    
Wind  
Wind Speed 10 mph (West)    
Max Wind Speed 18 mph    
Max Gust Speed 29 mph    
Visibility 10 miles    
Events      
Averages and records for this station are not official NWS values.
T = Trace of Precipitation, MM = Missing Value Source: NWS Daily Summary

Daily Weather History Graph

Daily Weather History Graph

Search for Another Location

Airport:

Trip Planner

Search our weather history database for the weather conditions in past years. The results will help you decide how hot, cold, wet, or windy it might be!

Date:

Astronomy

Dec. 05, 2012 Rise Set
Actual Time 7:37 AM MST 4:36 PM MST
Civil Twilight 7:04 AM MST 5:09 PM MST
Nautical Twilight 6:27 AM MST 5:46 PM MST
Astronomical Twilight 5:52 AM MST 6:21 PM MST
Moon 11:41 PM MST (12/5) 11:51 AM MST (12/5)
Length of Visible Light 10h 05m
Length of Day
8h 59m
Waning Gibbous, 59% of the Moon is Illuminated
Dec 5
Waning Gibbous
Dec 6
Last Quarter
Dec 13
New
Dec 19
First Quarter
Dec 28
Full

Hourly Weather History & Observations

Time (MST) Temp. Windchill Dew Point Humidity Pressure Visibility Wind Dir Wind Speed Gust Speed Precip Events Conditions
12:15 AM 50.0 °F - 32.0 °F 50% 29.93 in 10.0 mi SSE 9.2 mph - N/A   Overcast
12:35 AM 50.0 °F - 32.0 °F 50% 29.94 in 10.0 mi SW 11.5 mph - N/A   Overcast
12:55 AM 51.8 °F - 32.0 °F 47% 29.92 in 10.0 mi WSW 10.4 mph 23.0 mph N/A   Overcast
1:15 AM 50.0 °F - 30.2 °F 47% 29.91 in 10.0 mi SW 18.4 mph 24.2 mph N/A   Overcast
1:35 AM 50.0 °F - 30.2 °F 47% 29.90 in 10.0 mi South 17.3 mph - N/A   Mostly Cloudy
1:55 AM 50.0 °F - 30.2 °F 47% 29.89 in 10.0 mi SSE 12.7 mph - N/A   Scattered Clouds
2:15 AM 50.0 °F - 30.2 °F 47% 29.90 in 10.0 mi SE 9.2 mph - N/A   Mostly Cloudy
2:35 AM 51.8 °F - 30.2 °F 44% 29.91 in 10.0 mi East 8.1 mph - N/A   Overcast
2:55 AM 51.8 °F - 30.2 °F 44% 29.91 in 10.0 mi SSE 10.4 mph 17.3 mph N/A   Mostly Cloudy
3:15 AM 51.8 °F - 30.2 °F 44% 29.90 in 10.0 mi North 9.2 mph - N/A   Clear
3:35 AM 51.8 °F - 30.2 °F 44% 29.90 in 10.0 mi SW 13.8 mph 20.7 mph N/A   Scattered Clouds
3:55 AM 51.8 °F - 30.2 °F 44% 29.89 in 10.0 mi NNE 5.8 mph 16.1 mph N/A   Scattered Clouds
4:15 AM 51.8 °F - 30.2 °F 44% 29.89 in 10.0 mi NNW 5.8 mph - N/A   Mostly Cloudy
4:35 AM 51.8 °F - 30.2 °F 44% 29.88 in 10.0 mi WSW 8.1 mph 16.1 mph N/A   Overcast
4:55 AM 51.8 °F - 30.2 °F 44% 29.86 in 10.0 mi North 15.0 mph - N/A   Overcast
5:35 AM 51.8 °F - 32.0 °F 47% 29.84 in 10.0 mi NW 13.8 mph 26.5 mph N/A   Overcast
5:55 AM 51.8 °F - 30.2 °F 44% 29.83 in 10.0 mi NNW 11.5 mph 20.7 mph N/A   Scattered Clouds
7:55 AM 50.0 °F - 32.0 °F 50% 29.83 in 10.0 mi ESE 8.1 mph - N/A   Mostly Cloudy
8:15 AM 51.8 °F - 30.2 °F 44% 29.82 in 10.0 mi East 8.1 mph 21.9 mph N/A   Mostly Cloudy
8:35 AM 51.8 °F - 30.2 °F 44% 29.83 in 10.0 mi South 8.1 mph - N/A   Partly Cloudy
8:55 AM 51.8 °F - 30.2 °F 44% 29.83 in 10.0 mi South 5.8 mph - N/A   Clear
9:15 AM 53.6 °F - 32.0 °F 44% 29.82 in 10.0 mi West 3.5 mph 16.1 mph N/A   Clear
9:35 AM 55.4 °F - 32.0 °F 41% 29.82 in 10.0 mi WSW 13.8 mph 25.3 mph N/A   Clear
9:55 AM 57.2 °F - 32.0 °F 38% 29.82 in 10.0 mi WSW 13.8 mph 25.3 mph N/A   Partly Cloudy
10:15 AM 55.4 °F - 32.0 °F 41% 29.81 in 10.0 mi WSW 11.5 mph 20.7 mph N/A   Partly Cloudy
10:35 AM 53.6 °F - 33.8 °F 47% 29.82 in 10.0 mi West 9.2 mph 20.7 mph N/A   Clear
10:55 AM 53.6 °F - 33.8 °F 47% 29.82 in 10.0 mi SW 10.4 mph - N/A   Scattered Clouds
11:15 AM 53.6 °F - 33.8 °F 47% 29.81 in 10.0 mi WNW 6.9 mph - N/A   Scattered Clouds
11:35 AM 53.6 °F - 33.8 °F 47% 29.81 in 10.0 mi SW 6.9 mph 17.3 mph N/A   Partly Cloudy
11:55 AM 55.4 °F - 33.8 °F 44% 29.79 in 10.0 mi West 10.4 mph 24.2 mph N/A   Clear
12:35 PM 57.2 °F - 33.8 °F 41% 29.79 in 10.0 mi NNW 9.2 mph 16.1 mph N/A   Mostly Cloudy
12:55 PM 57.2 °F - 33.8 °F 41% 29.79 in 10.0 mi West 12.7 mph 21.9 mph N/A   Overcast
1:15 PM 55.4 °F - 32.0 °F 41% 29.80 in 10.0 mi West 11.5 mph 26.5 mph N/A   Overcast
1:35 PM 57.2 °F - 32.0 °F 38% 29.79 in 10.0 mi WSW 11.5 mph 24.2 mph N/A   Overcast
1:55 PM 57.2 °F - 30.2 °F 36% 29.78 in 10.0 mi South 5.8 mph - N/A   Overcast
2:15 PM 53.6 °F - 32.0 °F 44% 29.77 in 10.0 mi West 11.5 mph 20.7 mph N/A   Mostly Cloudy
2:35 PM 53.6 °F - 32.0 °F 44% 29.78 in 10.0 mi West 13.8 mph 28.8 mph N/A   Clear
2:55 PM 53.6 °F - 32.0 °F 44% 29.79 in 10.0 mi West 5.8 mph 19.6 mph N/A   Clear
3:15 PM 53.6 °F - 32.0 °F 44% 29.80 in 10.0 mi NNW 3.5 mph 17.3 mph N/A   Scattered Clouds
3:35 PM 53.6 °F - 30.2 °F 41% 29.80 in 10.0 mi West 5.8 mph - N/A   Overcast
3:55 PM 53.6 °F - 28.4 °F 38% 29.80 in 10.0 mi WSW 10.4 mph 18.4 mph N/A   Mostly Cloudy
4:15 PM 53.6 °F - 28.4 °F 38% 29.81 in 10.0 mi NW 5.8 mph - N/A   Partly Cloudy
4:35 PM 51.8 °F - 28.4 °F 41% 29.81 in 10.0 mi SW 12.7 mph 19.6 mph N/A   Partly Cloudy
4:55 PM 51.8 °F - 26.6 °F 38% 29.82 in 10.0 mi West 8.1 mph - N/A   Clear
5:15 PM 51.8 °F - 26.6 °F 38% 29.82 in 10.0 mi SW 4.6 mph - N/A   Clear
5:35 PM 51.8 °F - 26.6 °F 38% 29.83 in 10.0 mi WNW 8.1 mph 16.1 mph N/A   Partly Cloudy
5:55 PM 50.0 °F - 28.4 °F 43% 29.83 in 10.0 mi West 8.1 mph - N/A   Clear
6:15 PM 50.0 °F - 26.6 °F 40% 29.84 in 10.0 mi WNW 4.6 mph 17.3 mph N/A   Clear
6:55 PM 48.2 °F - 28.4 °F 46% 29.85 in 10.0 mi West 9.2 mph - N/A   Clear
7:15 PM 48.2 °F - 28.4 °F 46% 29.85 in 10.0 mi WNW 8.1 mph 20.7 mph N/A   Clear
7:35 PM 48.2 °F - 26.6 °F 43% 29.86 in 10.0 mi WSW 3.5 mph - N/A   Partly Cloudy
7:55 PM 48.2 °F - 26.6 °F 43% 29.86 in 10.0 mi West 5.8 mph - N/A   Mostly Cloudy
8:15 PM 46.4 °F 42.4 °F 24.8 °F 43% 29.87 in 10.0 mi West 8.1 mph - N/A   Overcast
8:35 PM 46.4 °F 45.2 °F 24.8 °F 43% 29.88 in 10.0 mi North 3.5 mph - N/A   Overcast
8:55 PM 44.6 °F 39.7 °F 28.4 °F 53% 29.89 in 10.0 mi NNE 9.2 mph - N/A   Overcast
9:15 PM 44.6 °F 42.2 °F 30.2 °F 57% 29.90 in 10.0 mi West 4.6 mph - N/A   Overcast
9:35 PM 42.8 °F 38.6 °F 32.0 °F 66% 29.90 in 10.0 mi North 6.9 mph - N/A   Overcast
9:55 PM 44.6 °F 40.7 °F 30.2 °F 57% 29.91 in 10.0 mi NNW 6.9 mph - N/A   Overcast
10:15 PM 42.8 °F 37.5 °F 30.2 °F 61% 29.92 in 10.0 mi North 9.2 mph - N/A   Overcast
10:35 PM 42.8 °F 37.0 °F 30.2 °F 61% 29.93 in 10.0 mi NNW 10.4 mph - N/A   Overcast
10:55 PM 41.0 °F 35.2 °F 28.4 °F 61% 29.94 in 10.0 mi North 9.2 mph 16.1 mph N/A   Overcast
11:15 PM 39.2 °F 33.0 °F 26.6 °F 61% 29.95 in 10.0 mi North 9.2 mph - N/A   Overcast
11:35 PM 39.2 °F 33.0 °F 26.6 °F 61% 29.96 in 10.0 mi NNW 9.2 mph - N/A   Overcast
11:55 PM 37.4 °F 30.8 °F 24.8 °F 60% 29.96 in 10.0 mi NW 9.2 mph - N/A   Overcast